createdAt,value
2019-05-19T00:04:44.620Z,104.38
2019-05-19T00:09:49.246Z,107.80
2019-05-19T00:20:07.147Z,108.80
2019-05-19T00:25:08.672Z,109.45
2019-05-19T00:30:10.293Z,108.27
2019-05-19T00:35:13.946Z,108.83
2019-05-19T00:40:17.519Z,108.75
2019-05-19T00:45:24.332Z,106.83
2019-05-19T00:50:25.805Z,106.85
2019-05-19T00:55:29.031Z,105.67
2019-05-19T01:00:32.513Z,108.00
2019-05-19T01:05:39.460Z,104.47
2019-05-19T01:10:40.709Z,104.32
2019-05-19T01:15:43.542Z,102.85
2019-05-19T01:20:46.469Z,102.58
2019-05-19T01:25:49.649Z,108.95
2019-05-19T01:30:50.954Z,108.03
2019-05-19T01:35:54.862Z,107.60
2019-05-19T01:40:56.185Z,109.17
2019-05-19T01:46:02.866Z,103.95
2019-05-19T01:51:04.510Z,108.00
2019-05-19T01:56:05.918Z,106.00
2019-05-19T02:01:07.704Z,110.45
2019-05-19T02:06:10.541Z,110.10
2019-05-19T02:11:12.311Z,110.17
2019-05-19T02:16:13.732Z,114.08
2019-05-19T02:21:17.397Z,109.20
2019-05-19T02:26:20.253Z,108.05
2019-05-19T02:31:25.551Z,109.67
2019-05-19T02:36:33.721Z,113.28
2019-05-19T02:41:41.977Z,111.10
2019-05-19T02:46:47.786Z,114.88
2019-05-19T02:51:55.344Z,118.80
2019-05-19T02:57:01.724Z,124.72
2019-05-19T03:02:15.356Z,118.05
2019-05-19T03:07:20.389Z,121.70
2019-05-19T03:12:23.185Z,129.80
2019-05-19T03:17:27.083Z,125.38
2019-05-19T03:22:30.404Z,128.40
2019-05-19T03:27:35.289Z,129.47
2019-05-19T03:32:42.144Z,129.27
2019-05-19T03:37:45.348Z,123.47
2019-05-19T03:42:53.123Z,127.90
2019-05-19T03:47:59.148Z,128.30
2019-05-19T03:53:00.458Z,131.10
2019-05-19T03:58:01.757Z,131.57
2019-05-19T04:03:04.389Z,132.85
2019-05-19T04:08:06.257Z,133.35
2019-05-19T04:13:08.174Z,131.27
2019-05-19T04:18:09.522Z,131.97
2019-05-19T04:23:14.714Z,141.05
2019-05-19T04:28:17.699Z,132.10
2019-05-19T04:33:21.119Z,131.60
2019-05-19T04:38:24.341Z,135.72
2019-05-19T04:43:27.258Z,133.15
2019-05-19T04:48:28.568Z,127.10
2019-05-19T04:53:30.220Z,125.95
2019-05-19T04:58:31.505Z,127.97
2019-05-19T05:03:38.204Z,131.52
2019-05-19T05:08:41.563Z,130.22
2019-05-19T05:13:44.787Z,124.50
2019-05-19T05:18:48.056Z,123.90
2019-05-19T05:23:49.539Z,129.07
2019-05-19T05:28:53.497Z,128.80
2019-05-19T05:33:54.831Z,126.40
2019-05-19T05:39:00.303Z,132.35
2019-05-19T05:44:03.923Z,123.62
2019-05-19T05:49:05.590Z,130.40
2019-05-19T05:54:10.308Z,139.20
2019-05-19T05:59:13.210Z,144.65
2019-05-19T06:04:20.547Z,175.87
2019-05-19T06:09:21.951Z,207.00
2019-05-19T06:14:23.250Z,187.07
2019-05-19T06:19:24.677Z,208.80
2019-05-19T06:24:26.705Z,184.65
2019-05-19T06:29:33.911Z,219.07
2019-05-19T06:34:35.258Z,221.37
2019-05-19T06:39:37.552Z,211.07
2019-05-19T06:44:38.839Z,199.87
2019-05-19T06:49:43.493Z,191.57
2019-05-19T06:54:46.688Z,167.22
2019-05-19T06:59:48.918Z,168.62
2019-05-19T07:05:10.650Z,179.90
2019-05-19T07:10:13.883Z,195.30
2019-05-19T07:15:15.817Z,179.42
2019-05-19T07:20:17.135Z,198.68
2019-05-19T07:25:18.722Z,185.10
2019-05-19T07:30:24.487Z,183.95
2019-05-19T07:35:26.894Z,186.18
2019-05-19T07:40:28.184Z,184.63
2019-05-19T07:45:31.877Z,182.82
2019-05-19T07:50:33.159Z,141.32
2019-05-19T07:55:34.472Z,150.18
2019-05-19T08:00:35.735Z,141.47
2019-05-19T08:05:38.550Z,135.35
2019-05-19T08:10:42.790Z,135.35
2019-05-19T08:15:44.837Z,134.18
2019-05-19T08:20:46.159Z,136.60
2019-05-19T08:25:47.446Z,115.75
2019-05-19T08:30:48.847Z,117.33
2019-05-19T08:35:50.475Z,113.32
2019-05-19T08:40:51.983Z,109.63
2019-05-19T08:45:54.913Z,105.30
2019-05-19T08:50:56.180Z,102.07
2019-05-19T08:55:57.445Z,102.10
2019-05-19T09:00:58.706Z,94.22
2019-05-19T09:05:59.991Z,98.87
2019-05-19T09:11:01.276Z,93.90
2019-05-19T09:16:03.357Z,91.00
2019-05-19T09:21:04.807Z,86.70
2019-05-19T09:26:09.094Z,88.67
2019-05-19T09:31:10.447Z,86.28
2019-05-19T09:36:12.008Z,86.65
2019-05-19T09:41:13.306Z,81.05
2019-05-19T09:46:14.653Z,83.72
2019-05-19T09:51:16.165Z,89.42
2019-05-19T09:56:17.452Z,81.60
2019-05-19T10:01:18.706Z,78.97
2019-05-19T10:06:19.985Z,82.60
2019-05-19T10:11:51.375Z,77.20
2019-05-19T10:16:52.819Z,65.35
2019-05-19T10:21:54.096Z,66.85
2019-05-19T10:26:57.047Z,62.80
2019-05-19T10:31:58.303Z,61.65
2019-05-19T10:36:59.730Z,65.83
2019-05-19T10:42:01.969Z,61.70
2019-05-19T10:47:04.657Z,63.42
2019-05-19T10:52:06.101Z,62.70
2019-05-19T10:57:07.541Z,62.03
2019-05-19T11:02:09.043Z,58.13
2019-05-19T11:07:10.333Z,57.48
2019-05-19T11:12:11.739Z,61.25
2019-05-19T11:17:14.440Z,54.35
2019-05-19T11:22:17.639Z,50.90
2019-05-19T11:27:18.962Z,49.35
2019-05-19T11:32:20.580Z,53.70
2019-05-19T11:37:22.286Z,49.77
2019-05-19T11:42:23.704Z,49.65
2019-05-19T11:47:45.971Z,47.53
2019-05-19T11:52:47.577Z,53.78
2019-05-19T11:57:49.247Z,50.25
2019-05-19T12:02:50.751Z,45.80
2019-05-19T12:07:52.100Z,48.78
2019-05-19T12:12:55.436Z,53.83
2019-05-19T12:17:56.743Z,54.73
2019-05-19T12:22:58.070Z,47.15
2019-05-19T12:27:59.388Z,49.20
2019-05-19T12:33:00.776Z,45.75
2019-05-19T12:38:02.177Z,44.03
2019-05-19T12:43:03.579Z,42.58
2019-05-19T12:48:05.217Z,40.83
2019-05-19T12:53:06.497Z,45.38
2019-05-19T12:58:09.721Z,48.33
2019-05-19T13:03:11.010Z,45.48
2019-05-19T13:08:12.381Z,40.88
2019-05-19T13:13:15.473Z,48.23
2019-05-19T13:18:16.772Z,54.53
2019-05-19T13:23:18.549Z,47.73
2019-05-19T13:28:20.102Z,55.48
2019-05-19T13:33:21.963Z,52.45
2019-05-19T13:38:23.286Z,57.23
2019-05-19T13:43:26.003Z,50.83
2019-05-19T13:48:28.218Z,49.90
2019-05-19T13:53:29.547Z,48.52
2019-05-19T13:58:30.893Z,50.78
2019-05-19T14:03:32.233Z,49.77
2019-05-19T14:08:36.408Z,51.60
2019-05-19T14:13:37.940Z,50.50
2019-05-19T14:18:39.309Z,45.08
2019-05-19T14:23:40.986Z,46.77
2019-05-19T14:28:42.470Z,48.83
2019-05-19T14:33:45.675Z,46.33
2019-05-19T14:39:05.056Z,46.18
2019-05-19T14:44:05.334Z,49.38
2019-05-19T14:49:07.083Z,43.75
2019-05-19T14:54:08.471Z,45.50
2019-05-19T14:59:10.113Z,48.42
2019-05-19T15:04:13.299Z,49.88
2019-05-19T15:09:14.557Z,50.20
2019-05-19T15:14:15.946Z,47.55
2019-05-19T15:19:17.221Z,54.42
2019-05-19T15:24:18.610Z,55.60
2019-05-19T15:29:21.184Z,55.30
2019-05-19T15:34:22.494Z,58.75
2019-05-19T15:39:24.141Z,57.73
2019-05-19T15:44:25.712Z,57.43
2019-05-19T15:49:27.123Z,59.75
2019-05-19T15:54:28.432Z,58.92
2019-05-19T15:59:31.404Z,60.33
2019-05-19T16:04:32.680Z,58.60
2019-05-19T16:09:33.968Z,65.65
2019-05-19T16:14:35.910Z,56.60
2019-05-19T16:19:37.270Z,60.25
2019-05-19T16:24:39.028Z,58.73
2019-05-19T16:29:41.392Z,61.08
2019-05-19T16:34:42.696Z,71.40
2019-05-19T16:39:44.047Z,71.40
2019-05-19T16:44:45.985Z,64.30
2019-05-19T16:49:47.850Z,62.88
2019-05-19T16:55:10.147Z,66.53
2019-05-19T17:00:14.763Z,65.28
2019-05-19T17:05:16.930Z,68.28
2019-05-19T17:10:20.816Z,70.92
2019-05-19T17:15:22.689Z,80.85
2019-05-19T17:20:26.151Z,68.40
2019-05-19T17:25:31.416Z,61.02
2019-05-19T17:30:35.146Z,93.47
2019-05-19T17:35:36.546Z,63.13
2019-05-19T17:40:38.200Z,64.58
2019-05-19T17:45:39.613Z,60.40
2019-05-19T17:50:40.894Z,61.35
2019-05-19T17:55:54.004Z,65.03
2019-05-19T18:00:57.236Z,65.70
2019-05-19T18:06:00.765Z,73.07
2019-05-19T18:11:03.311Z,62.67
2019-05-19T18:16:07.436Z,62.62
2019-05-19T18:21:10.214Z,57.88
2019-05-19T18:26:13.330Z,64.60
2019-05-19T18:31:18.397Z,72.42
2019-05-19T18:36:24.023Z,64.55
2019-05-19T18:41:27.658Z,65.65
2019-05-19T18:46:28.971Z,70.72
2019-05-19T18:51:31.833Z,68.45
2019-05-19T18:56:33.558Z,71.02
2019-05-19T19:01:35.105Z,64.85
2019-05-19T19:06:37.685Z,65.10
2019-05-19T19:11:38.962Z,74.82
2019-05-19T19:16:40.385Z,74.92
2019-05-19T19:21:42.876Z,84.35
2019-05-19T19:26:44.244Z,85.10
2019-05-19T19:31:48.480Z,96.87
2019-05-19T19:36:50.012Z,87.72
2019-05-19T19:41:51.298Z,80.72
2019-05-19T19:46:53.740Z,102.22
2019-05-19T19:51:56.064Z,90.45
2019-05-19T19:57:01.321Z,83.58
2019-05-19T20:02:02.729Z,88.15
2019-05-19T20:07:06.324Z,84.65
2019-05-19T20:12:09.909Z,81.30
2019-05-19T20:17:13.266Z,84.90
2019-05-19T20:22:16.569Z,80.47
2019-05-19T20:27:17.887Z,91.45
2019-05-19T20:32:19.178Z,87.80
2019-05-19T20:37:22.818Z,90.97
2019-05-19T20:42:24.221Z,91.37
2019-05-19T20:47:25.522Z,101.53
2019-05-19T20:52:28.928Z,101.97
2019-05-19T20:57:30.209Z,99.17
2019-05-19T21:02:31.844Z,106.12
2019-05-19T21:07:36.786Z,94.05
2019-05-19T21:12:39.993Z,110.40
2019-05-19T21:17:42.719Z,104.20
2019-05-19T21:22:44.139Z,103.58
2019-05-19T21:27:47.420Z,103.22
2019-05-19T21:32:49.603Z,107.50
2019-05-19T21:37:56.503Z,108.67
2019-05-19T21:43:01.184Z,103.75
2019-05-19T21:48:04.577Z,104.30
2019-05-19T21:53:08.127Z,107.60
2019-05-19T21:58:09.451Z,99.37
2019-05-19T22:03:11.575Z,96.08
2019-05-19T22:08:15.129Z,96.17
2019-05-19T22:13:16.562Z,95.97
2019-05-19T22:18:19.481Z,87.12
2019-05-19T22:23:20.867Z,83.55
2019-05-19T22:28:22.659Z,78.15
2019-05-19T22:33:24.171Z,79.95
2019-05-19T22:38:25.764Z,72.03
2019-05-19T22:43:27.251Z,76.82
2019-05-19T22:48:30.521Z,81.37
2019-05-19T22:53:32.972Z,82.47
2019-05-19T22:58:35.696Z,77.25
2019-05-19T23:03:41.462Z,70.52
2019-05-19T23:08:47.609Z,79.45
2019-05-19T23:13:48.970Z,70.83
2019-05-19T23:18:52.902Z,77.60
2019-05-19T23:23:55.116Z,78.07
2019-05-19T23:28:56.998Z,87.95
2019-05-19T23:33:59.153Z,78.00
2019-05-19T23:39:22.547Z,91.50
2019-05-19T23:44:24.311Z,88.90
2019-05-19T23:49:25.906Z,88.10
2019-05-19T23:54:31.429Z,94.65
2019-05-19T23:59:36.797Z,89.60
